createdAt,value
2023-02-28T00:00:00.927Z,2.42
2023-02-28T00:01:00.923Z,2.44
2023-02-28T00:02:01.913Z,2.36
2023-02-28T00:03:00.990Z,2.50
2023-02-28T00:04:00.930Z,2.49
2023-02-28T00:05:01.133Z,2.46
2023-02-28T00:06:00.863Z,2.50
2023-02-28T00:07:00.857Z,2.47
2023-02-28T00:08:00.863Z,2.47
2023-02-28T00:09:00.861Z,2.47
2023-02-28T00:10:00.842Z,2.49
2023-02-28T00:11:00.810Z,2.56
2023-02-28T00:12:00.804Z,2.54
2023-02-28T00:13:00.789Z,2.65
2023-02-28T00:14:00.781Z,2.67
2023-02-28T00:15:00.833Z,2.62
2023-02-28T00:16:00.779Z,2.72
2023-02-28T00:17:00.807Z,2.68
2023-02-28T00:18:00.734Z,2.67
2023-02-28T00:19:00.718Z,2.72
2023-02-28T00:20:00.714Z,2.69
2023-02-28T00:21:00.706Z,2.71
2023-02-28T00:22:00.726Z,2.71
2023-02-28T00:23:00.764Z,2.65
2023-02-28T00:24:00.662Z,2.69
2023-02-28T00:25:00.679Z,2.60
2023-02-28T00:26:00.645Z,2.62
2023-02-28T00:27:00.648Z,2.61
2023-02-28T00:28:00.660Z,2.60
2023-02-28T00:29:00.626Z,2.50
2023-02-28T00:30:00.592Z,2.49
2023-02-28T00:31:00.650Z,2.50
2023-02-28T00:32:00.691Z,2.51
2023-02-28T00:33:00.566Z,2.53
2023-02-28T00:34:00.697Z,2.43
2023-02-28T00:35:00.536Z,2.47
2023-02-28T00:36:00.634Z,2.43
2023-02-28T00:37:00.512Z,2.47
2023-02-28T00:38:00.515Z,2.43
2023-02-28T00:39:00.501Z,2.44
2023-02-28T00:40:00.588Z,2.50
2023-02-28T00:41:00.504Z,2.53
2023-02-28T00:42:00.476Z,2.46
2023-02-28T00:43:00.470Z,2.51
2023-02-28T00:44:00.452Z,2.47
2023-02-28T00:45:00.506Z,2.61
2023-02-28T00:46:00.587Z,2.44
2023-02-28T00:47:00.400Z,2.54
2023-02-28T00:48:00.397Z,2.60
2023-02-28T00:49:00.389Z,2.51
2023-02-28T00:50:00.379Z,2.51
2023-02-28T00:51:00.362Z,2.53
2023-02-28T00:52:00.429Z,2.54
2023-02-28T00:53:00.342Z,2.43
2023-02-28T00:54:00.327Z,2.43
2023-02-28T00:55:00.311Z,2.39
2023-02-28T00:56:00.311Z,2.43
2023-02-28T00:57:00.336Z,2.29
2023-02-28T00:58:00.311Z,2.31
2023-02-28T00:59:00.285Z,2.33
2023-02-28T01:00:00.260Z,2.24
2023-02-28T01:01:00.254Z,2.17
2023-02-28T01:02:00.560Z,2.20
2023-02-28T01:03:00.225Z,2.20
2023-02-28T01:04:00.454Z,2.13
2023-02-28T01:05:00.222Z,2.20
2023-02-28T01:06:00.231Z,2.13
2023-02-28T01:07:00.186Z,2.17
2023-02-28T01:08:00.188Z,2.17
2023-02-28T01:09:00.161Z,2.10
2023-02-28T01:10:00.226Z,2.14
2023-02-28T01:11:00.138Z,2.17
2023-02-28T01:12:00.153Z,2.14
2023-02-28T01:13:00.149Z,2.13
2023-02-28T01:14:00.146Z,2.14
2023-02-28T01:15:00.099Z,2.04
2023-02-28T01:16:00.197Z,2.06
2023-02-28T01:17:00.115Z,2.06
2023-02-28T01:18:00.079Z,1.99
2023-02-28T01:19:00.095Z,1.99
2023-02-28T01:20:00.114Z,2.00
2023-02-28T01:21:00.037Z,2.04
2023-02-28T01:22:00.105Z,2.02
2023-02-28T01:23:00.062Z,2.00
2023-02-28T01:24:00.004Z,1.97
2023-02-28T01:24:59.981Z,2.00
2023-02-28T01:25:59.983Z,1.99
2023-02-28T01:27:00.003Z,1.94
2023-02-28T01:28:00.001Z,1.91
2023-02-28T01:28:59.995Z,1.85
2023-02-28T01:29:59.931Z,1.97
2023-02-28T01:30:59.967Z,1.92
2023-02-28T01:31:59.958Z,1.92
2023-02-28T01:32:59.902Z,1.84
2023-02-28T01:33:59.924Z,1.78
2023-02-28T01:34:59.876Z,1.84
2023-02-28T01:35:59.907Z,1.87
2023-02-28T01:36:59.884Z,1.73
2023-02-28T01:38:09.550Z,1.81
2023-02-28T01:39:00.844Z,1.76
2023-02-28T01:39:59.838Z,1.81
2023-02-28T01:40:59.824Z,1.78
2023-02-28T01:41:59.798Z,1.77
2023-02-28T01:42:59.824Z,1.73
2023-02-28T01:43:59.914Z,1.74
2023-02-28T01:44:59.830Z,1.76
2023-02-28T01:45:59.988Z,1.76
2023-02-28T01:46:59.740Z,1.74
2023-02-28T01:47:59.729Z,1.74
2023-02-28T01:48:59.729Z,1.74
2023-02-28T01:49:59.705Z,1.76
2023-02-28T01:50:59.757Z,1.74
2023-02-28T01:51:59.689Z,1.71
2023-02-28T01:52:59.679Z,1.76
2023-02-28T01:53:59.690Z,1.78
2023-02-28T01:54:59.647Z,1.76
2023-02-28T01:55:59.648Z,1.76
2023-02-28T01:56:59.697Z,1.74
2023-02-28T01:57:59.626Z,1.77
2023-02-28T01:58:59.650Z,1.89
2023-02-28T01:59:59.595Z,1.84
2023-02-28T02:00:59.609Z,1.77
2023-02-28T02:02:00.826Z,1.88
2023-02-28T02:02:59.653Z,1.95
2023-02-28T02:03:59.550Z,1.91
2023-02-28T02:04:59.544Z,1.88
2023-02-28T02:05:59.528Z,1.95
2023-02-28T02:06:59.516Z,1.94
2023-02-28T02:07:59.510Z,1.99
2023-02-28T02:08:59.533Z,1.89
2023-02-28T02:09:59.491Z,1.92
2023-02-28T02:10:59.481Z,1.88
2023-02-28T02:11:59.461Z,1.87
2023-02-28T02:12:59.451Z,1.95
2023-02-28T02:13:59.439Z,2.02
2023-02-28T02:14:59.517Z,1.94
2023-02-28T02:15:59.460Z,1.97
2023-02-28T02:16:59.434Z,2.06
2023-02-28T02:17:59.398Z,2.10
2023-02-28T02:18:59.386Z,2.07
2023-02-28T02:19:59.372Z,1.99
2023-02-28T02:20:59.400Z,2.02
2023-02-28T02:21:59.359Z,1.97
2023-02-28T02:22:59.342Z,2.02
2023-02-28T02:23:59.329Z,2.04
2023-02-28T02:24:59.315Z,2.07
2023-02-28T02:25:59.315Z,2.04
2023-02-28T02:26:59.349Z,1.99
2023-02-28T02:27:59.312Z,2.06
2023-02-28T02:28:59.281Z,1.97
2023-02-28T02:29:59.291Z,2.00
2023-02-28T02:30:59.351Z,2.04
2023-02-28T02:31:59.306Z,2.02
2023-02-28T02:32:59.294Z,2.02
2023-02-28T02:33:59.230Z,2.02
2023-02-28T02:34:59.228Z,2.02
2023-02-28T02:35:59.239Z,2.04
2023-02-28T02:36:59.192Z,2.06
2023-02-28T02:37:59.180Z,2.07
2023-02-28T02:38:59.222Z,2.10
2023-02-28T02:39:59.185Z,2.11
2023-02-28T02:40:59.147Z,2.04
2023-02-28T02:41:59.134Z,2.10
2023-02-28T02:42:59.128Z,2.13
2023-02-28T02:43:59.124Z,2.00
2023-02-28T02:44:59.149Z,2.08
2023-02-28T02:45:59.126Z,1.97
2023-02-28T02:46:59.095Z,2.00
2023-02-28T02:47:59.073Z,2.07
2023-02-28T02:48:59.091Z,2.00
2023-02-28T02:49:59.047Z,2.00
2023-02-28T02:50:59.054Z,2.00
2023-02-28T02:51:59.025Z,2.06
2023-02-28T02:52:59.023Z,1.99
2023-02-28T02:53:59.038Z,2.02
2023-02-28T02:54:58.993Z,2.00
2023-02-28T02:55:59.013Z,2.07
2023-02-28T02:56:58.986Z,2.07
2023-02-28T02:57:58.985Z,2.06
2023-02-28T02:58:58.964Z,1.97
2023-02-28T02:59:58.933Z,2.04
2023-02-28T03:00:58.951Z,2.06
2023-02-28T03:01:58.911Z,1.97
2023-02-28T03:02:58.959Z,2.02
2023-02-28T03:03:58.920Z,2.02
2023-02-28T03:04:58.904Z,2.06
2023-02-28T03:05:58.878Z,1.97
2023-02-28T03:06:58.865Z,1.97
2023-02-28T03:07:58.854Z,2.02
2023-02-28T03:08:58.878Z,2.02
2023-02-28T03:09:58.846Z,2.04
2023-02-28T03:10:58.827Z,1.84
2023-02-28T03:11:58.807Z,2.04
2023-02-28T03:12:58.796Z,1.92
2023-02-28T03:13:58.786Z,1.91
2023-02-28T03:14:58.815Z,1.97
2023-02-28T03:15:58.792Z,1.91
2023-02-28T03:16:58.753Z,1.97
2023-02-28T03:17:58.742Z,1.95
2023-02-28T03:18:58.732Z,1.89
2023-02-28T03:19:58.762Z,1.92
2023-02-28T03:20:58.780Z,1.99
2023-02-28T03:21:58.700Z,1.88
2023-02-28T03:22:58.686Z,1.97
2023-02-28T03:23:58.684Z,1.89
2023-02-28T03:24:58.674Z,1.94
2023-02-28T03:25:58.691Z,1.99
2023-02-28T03:26:58.681Z,1.85
2023-02-28T03:27:58.654Z,1.94
2023-02-28T03:28:58.634Z,1.99
2023-02-28T03:29:58.617Z,1.91
2023-02-28T03:30:58.604Z,1.99
2023-02-28T03:31:58.690Z,1.95
2023-02-28T03:32:58.611Z,1.92
2023-02-28T03:33:58.572Z,1.88
2023-02-28T03:34:58.580Z,1.84
2023-02-28T03:35:58.588Z,1.89
2023-02-28T03:36:58.633Z,1.87
2023-02-28T03:37:58.530Z,1.88
2023-02-28T03:38:58.584Z,1.77
2023-02-28T03:39:58.509Z,1.76
2023-02-28T03:40:58.497Z,1.84
2023-02-28T03:41:58.493Z,1.85
2023-02-28T03:42:58.475Z,1.91
2023-02-28T03:43:58.473Z,1.89
2023-02-28T03:44:58.534Z,1.85
2023-02-28T03:45:58.460Z,1.91
2023-02-28T03:46:58.436Z,1.92
2023-02-28T03:47:58.433Z,1.88
2023-02-28T03:48:58.417Z,1.89
2023-02-28T03:49:58.404Z,1.94
2023-02-28T03:50:58.409Z,1.84
2023-02-28T03:51:58.376Z,1.84
2023-02-28T03:52:58.420Z,1.92
2023-02-28T03:53:58.382Z,1.91
2023-02-28T03:54:58.344Z,1.91
2023-02-28T03:55:58.335Z,1.94
2023-02-28T03:56:58.381Z,1.88
2023-02-28T03:57:58.316Z,1.94
2023-02-28T03:58:58.348Z,1.91
2023-02-28T03:59:58.299Z,2.02
2023-02-28T04:00:58.280Z,1.97
2023-02-28T04:01:58.273Z,2.02
2023-02-28T04:02:58.303Z,2.00
2023-02-28T04:03:58.253Z,2.00
2023-02-28T04:04:58.237Z,1.95
2023-02-28T04:05:58.243Z,2.02
2023-02-28T04:06:58.215Z,2.10
2023-02-28T04:07:58.197Z,1.95
2023-02-28T04:08:58.251Z,2.08
2023-02-28T04:09:58.194Z,2.10
2023-02-28T04:10:58.174Z,2.02
2023-02-28T04:11:58.159Z,2.11
2023-02-28T04:12:58.142Z,2.14
2023-02-28T04:13:58.160Z,2.10
2023-02-28T04:14:58.165Z,2.14
2023-02-28T04:15:58.162Z,2.00
2023-02-28T04:16:58.109Z,2.00
2023-02-28T04:17:58.100Z,2.07
2023-02-28T04:18:58.084Z,2.06
2023-02-28T04:19:58.068Z,2.07
2023-02-28T04:20:58.086Z,2.00
2023-02-28T04:21:58.062Z,2.02
2023-02-28T04:22:58.027Z,2.02
2023-02-28T04:23:58.023Z,2.04
2023-02-28T04:24:58.038Z,2.02
2023-02-28T04:25:58.000Z,2.07
2023-02-28T04:26:58.042Z,2.04
2023-02-28T04:27:57.978Z,2.06
2023-02-28T04:28:57.969Z,2.07
2023-02-28T04:29:57.978Z,2.06
2023-02-28T04:30:57.945Z,2.02
2023-02-28T04:31:58.037Z,2.00
2023-02-28T04:32:57.952Z,1.99
2023-02-28T04:33:57.918Z,2.00
2023-02-28T04:34:57.925Z,2.00
2023-02-28T04:35:57.934Z,2.04
2023-02-28T04:37:11.869Z,1.91
2023-02-28T04:37:58.933Z,2.00
2023-02-28T04:38:57.851Z,1.89
2023-02-28T04:39:57.845Z,1.91
2023-02-28T04:40:57.981Z,1.91
2023-02-28T04:41:57.815Z,1.85
2023-02-28T04:42:57.833Z,1.89
2023-02-28T04:43:57.858Z,1.89
2023-02-28T04:44:57.801Z,1.77
2023-02-28T04:45:57.863Z,1.77
2023-02-28T04:46:57.770Z,1.73
2023-02-28T04:47:57.755Z,1.87
2023-02-28T04:48:57.740Z,1.80
2023-02-28T04:49:57.767Z,1.77
2023-02-28T04:50:57.721Z,1.73
2023-02-28T04:51:57.713Z,1.74
2023-02-28T04:52:57.700Z,1.73
2023-02-28T04:53:57.694Z,1.71
2023-02-28T04:54:57.674Z,1.78
2023-02-28T04:55:57.820Z,1.85
2023-02-28T04:56:57.686Z,1.80
2023-02-28T04:57:57.647Z,1.85
2023-02-28T04:58:57.635Z,1.77
2023-02-28T04:59:57.647Z,1.88
2023-02-28T05:00:57.603Z,1.92
2023-02-28T05:01:57.699Z,1.87
2023-02-28T05:02:57.619Z,1.89
2023-02-28T05:03:57.580Z,1.97
2023-02-28T05:04:57.596Z,1.91
2023-02-28T05:05:57.570Z,1.92
2023-02-28T05:06:57.569Z,1.92
2023-02-28T05:07:57.634Z,1.88
2023-02-28T05:08:57.527Z,1.78
2023-02-28T05:09:57.509Z,1.84
2023-02-28T05:10:57.501Z,1.74
2023-02-28T05:11:57.490Z,1.76
2023-02-28T05:12:57.503Z,1.73
2023-02-28T05:13:57.539Z,1.68
2023-02-28T05:14:57.458Z,1.67
2023-02-28T05:15:57.492Z,1.67
2023-02-28T05:16:57.439Z,1.71
2023-02-28T05:17:57.460Z,1.62
2023-02-28T05:18:57.430Z,1.60
2023-02-28T05:20:09.775Z,1.62
2023-02-28T05:20:58.394Z,1.68
2023-02-28T05:21:57.378Z,1.66
2023-02-28T05:22:57.374Z,1.66
2023-02-28T05:23:57.358Z,1.63
2023-02-28T05:24:57.354Z,1.59
2023-02-28T05:25:57.378Z,1.66
2023-02-28T05:26:57.328Z,1.59
2023-02-28T05:27:57.317Z,1.53
2023-02-28T05:28:57.330Z,1.53
2023-02-28T05:29:57.297Z,1.59
2023-02-28T05:30:57.283Z,1.62
2023-02-28T05:31:57.416Z,1.67
2023-02-28T05:32:57.265Z,1.67
2023-02-28T05:33:57.251Z,1.62
2023-02-28T05:34:57.263Z,1.55
2023-02-28T05:35:57.243Z,1.63
2023-02-28T05:36:57.263Z,1.62
2023-02-28T05:37:57.246Z,1.68
2023-02-28T05:38:57.216Z,1.71
2023-02-28T05:39:57.186Z,1.76
2023-02-28T05:40:57.172Z,1.77
2023-02-28T05:41:57.952Z,1.74
2023-02-28T05:42:57.154Z,1.76
2023-02-28T05:43:57.196Z,1.77
2023-02-28T05:44:57.151Z,1.88
2023-02-28T05:45:57.177Z,1.89
2023-02-28T05:46:57.965Z,1.84
2023-02-28T05:47:57.099Z,1.94
2023-02-28T05:48:57.194Z,1.80
2023-02-28T05:49:57.112Z,1.88
2023-02-28T05:50:57.065Z,1.94
2023-02-28T05:51:57.050Z,1.94
2023-02-28T05:52:57.062Z,1.91
2023-02-28T05:53:57.046Z,1.91
2023-02-28T05:54:57.036Z,1.94
2023-02-28T05:55:57.036Z,1.94
2023-02-28T05:56:57.000Z,1.95
2023-02-28T05:57:57.004Z,1.94
2023-02-28T05:58:57.023Z,1.91
2023-02-28T05:59:56.968Z,1.92
2023-02-28T06:00:57.019Z,1.95
2023-02-28T06:01:57.506Z,1.99
2023-02-28T06:02:57.938Z,1.99
2023-02-28T06:03:56.954Z,2.06
2023-02-28T06:04:56.912Z,1.99
2023-02-28T06:05:56.906Z,2.08
2023-02-28T06:06:56.891Z,2.14
2023-02-28T06:07:56.922Z,2.10
2023-02-28T06:08:56.867Z,2.20
2023-02-28T06:09:56.857Z,2.20
2023-02-28T06:10:56.873Z,2.20
2023-02-28T06:11:56.836Z,2.20
2023-02-28T06:12:56.845Z,2.32
2023-02-28T06:13:56.871Z,2.36
2023-02-28T06:14:56.804Z,2.36
2023-02-28T06:15:56.797Z,2.46
2023-02-28T06:16:58.931Z,2.46
2023-02-28T06:17:56.795Z,2.51
2023-02-28T06:18:56.784Z,2.60
2023-02-28T06:19:56.860Z,2.57
2023-02-28T06:20:56.736Z,2.64
2023-02-28T06:21:56.758Z,2.57
2023-02-28T06:22:56.712Z,2.60
2023-02-28T06:23:56.706Z,2.57
2023-02-28T06:24:56.693Z,2.53
2023-02-28T06:25:56.915Z,2.67
2023-02-28T06:26:57.468Z,2.60
2023-02-28T06:27:56.658Z,2.64
2023-02-28T06:28:56.696Z,2.57
2023-02-28T06:29:56.641Z,2.60
2023-02-28T06:30:56.664Z,2.67
2023-02-28T06:31:56.700Z,2.62
2023-02-28T06:32:56.635Z,2.57
2023-02-28T06:33:56.740Z,2.61
2023-02-28T06:34:56.589Z,2.65
2023-02-28T06:35:56.608Z,2.64
2023-02-28T06:36:56.585Z,2.82
2023-02-28T06:37:56.590Z,2.82
2023-02-28T06:38:56.566Z,2.83
2023-02-28T06:39:56.535Z,2.82
2023-02-28T06:40:56.541Z,2.86
2023-02-28T06:41:56.791Z,2.87
2023-02-28T06:42:57.481Z,2.90
2023-02-28T06:43:56.590Z,2.95
2023-02-28T06:44:56.474Z,2.90
2023-02-28T06:45:56.506Z,3.05
2023-02-28T06:46:56.485Z,2.95
2023-02-28T06:47:56.447Z,3.05
2023-02-28T06:48:56.542Z,3.04
2023-02-28T06:49:56.448Z,3.11
2023-02-28T06:50:56.981Z,3.19
2023-02-28T06:51:56.969Z,3.22
2023-02-28T06:52:56.412Z,3.26
2023-02-28T06:53:56.379Z,3.26
2023-02-28T06:54:56.459Z,3.26
2023-02-28T06:55:56.647Z,3.34
2023-02-28T06:56:56.477Z,3.26
2023-02-28T06:57:56.328Z,3.44
2023-02-28T06:58:56.406Z,3.40
2023-02-28T06:59:56.415Z,3.42
2023-02-28T07:00:57.062Z,3.47
2023-02-28T07:01:56.717Z,3.50
2023-02-28T07:02:57.091Z,3.56
2023-02-28T07:03:56.329Z,3.65
2023-02-28T07:04:56.369Z,3.63
2023-02-28T07:05:57.923Z,3.70
2023-02-28T07:06:56.252Z,3.70
2023-02-28T07:07:56.528Z,3.69
2023-02-28T07:10:13.178Z,3.68
2023-02-28T07:11:12.706Z,3.62
2023-02-28T07:12:12.829Z,3.59
2023-02-28T07:13:12.768Z,3.69
2023-02-28T07:14:12.662Z,3.62
2023-02-28T07:15:12.709Z,3.69
2023-02-28T07:16:12.829Z,3.73
2023-02-28T07:17:12.626Z,3.74
2023-02-28T07:18:12.615Z,3.74
2023-02-28T07:19:12.676Z,3.69
2023-02-28T07:20:12.654Z,3.69
2023-02-28T07:21:12.669Z,3.74
2023-02-28T07:22:14.301Z,3.88
2023-02-28T07:23:12.573Z,3.86
2023-02-28T07:24:12.552Z,3.91
2023-02-28T07:25:12.767Z,3.98
2023-02-28T07:26:12.574Z,4.04
2023-02-28T07:27:12.586Z,3.99
2023-02-28T07:28:12.524Z,4.01
2023-02-28T07:29:12.500Z,4.08
2023-02-28T07:30:12.494Z,4.12
2023-02-28T07:31:12.744Z,4.05
2023-02-28T07:32:12.527Z,4.02
2023-02-28T07:33:12.701Z,4.04
2023-02-28T07:34:12.429Z,4.10
2023-02-28T07:35:12.456Z,4.16
2023-02-28T07:36:12.471Z,4.14
2023-02-28T07:37:12.543Z,4.23
2023-02-28T07:38:12.530Z,4.40
2023-02-28T07:39:12.658Z,4.35
2023-02-28T07:40:12.362Z,4.41
2023-02-28T07:41:12.372Z,4.42
2023-02-28T07:42:12.523Z,4.55
2023-02-28T07:43:12.510Z,4.59
2023-02-28T07:45:27.740Z,4.66
2023-02-28T07:46:30.512Z,4.63
2023-02-28T07:47:27.727Z,4.70
2023-02-28T07:48:27.825Z,4.62
2023-02-28T07:49:27.592Z,4.75
2023-02-28T07:50:27.742Z,4.77
2023-02-28T07:51:28.102Z,4.78
2023-02-28T07:52:27.591Z,4.82
2023-02-28T07:53:27.616Z,4.87
2023-02-28T07:54:27.645Z,4.94
2023-02-28T07:55:27.508Z,5.10
2023-02-28T07:56:28.129Z,5.04
2023-02-28T07:57:27.496Z,5.14
2023-02-28T07:58:27.495Z,5.15
2023-02-28T07:59:27.471Z,5.30
2023-02-28T08:00:27.782Z,5.43
2023-02-28T08:01:27.772Z,5.62
2023-02-28T08:02:27.449Z,5.62
2023-02-28T08:03:27.593Z,5.71
2023-02-28T08:04:27.570Z,5.79
2023-02-28T08:05:27.509Z,5.87
2023-02-28T08:06:27.536Z,5.93
2023-02-28T08:07:27.466Z,6.08
2023-02-28T08:08:27.374Z,6.07
2023-02-28T08:09:27.387Z,6.11
2023-02-28T08:10:27.422Z,6.14
2023-02-28T08:11:27.892Z,6.14
2023-02-28T08:12:27.596Z,6.27
2023-02-28T08:13:27.359Z,6.36
2023-02-28T08:14:27.318Z,6.31
2023-02-28T08:15:27.290Z,6.39
2023-02-28T08:16:27.367Z,6.41
2023-02-28T08:17:27.303Z,6.44
2023-02-28T08:18:27.388Z,6.54
2023-02-28T08:19:27.318Z,6.57
2023-02-28T08:20:27.321Z,6.60
2023-02-28T08:21:27.715Z,6.67
2023-02-28T08:22:27.206Z,6.67
2023-02-28T08:23:27.224Z,6.79
2023-02-28T08:24:27.256Z,6.85
2023-02-28T08:25:27.248Z,6.85
2023-02-28T08:26:27.188Z,7.02
2023-02-28T08:27:27.145Z,7.03
2023-02-28T08:28:27.700Z,6.99
2023-02-28T08:29:27.124Z,7.05
2023-02-28T08:30:27.279Z,7.00
2023-02-28T08:31:27.187Z,7.13
2023-02-28T08:32:30.194Z,7.14
2023-02-28T08:33:27.093Z,7.20
2023-02-28T08:34:27.071Z,7.35
2023-02-28T08:35:27.162Z,7.25
2023-02-28T08:36:27.556Z,7.42
2023-02-28T08:37:27.186Z,7.39
2023-02-28T08:38:27.095Z,7.40
2023-02-28T08:39:27.040Z,7.45
2023-02-28T08:40:27.049Z,7.40
2023-02-28T08:41:27.413Z,7.43
2023-02-28T08:42:27.071Z,7.36
2023-02-28T08:43:26.979Z,7.48
2023-02-28T08:44:26.955Z,7.50
2023-02-28T08:45:27.025Z,7.56
2023-02-28T08:46:26.929Z,7.56
2023-02-28T08:47:26.918Z,7.66
2023-02-28T08:48:26.955Z,7.63
2023-02-28T08:49:26.902Z,7.80
2023-02-28T08:50:26.941Z,7.87
2023-02-28T08:51:27.155Z,7.91
2023-02-28T08:52:26.859Z,7.94
2023-02-28T08:53:26.867Z,7.95
2023-02-28T08:54:27.072Z,8.03
2023-02-28T08:55:26.919Z,7.90
2023-02-28T08:56:27.794Z,7.94
2023-02-28T08:57:26.799Z,7.79
2023-02-28T08:58:26.788Z,7.77
2023-02-28T08:59:26.797Z,7.73
2023-02-28T09:00:26.913Z,7.77
2023-02-28T09:01:26.885Z,7.61
2023-02-28T09:02:26.765Z,7.77
2023-02-28T09:03:26.818Z,7.77
2023-02-28T09:04:26.727Z,7.72
2023-02-28T09:05:26.716Z,7.72
2023-02-28T09:06:26.994Z,7.61
2023-02-28T09:07:26.706Z,7.75
2023-02-28T09:08:26.688Z,7.66
2023-02-28T09:09:26.684Z,7.66
2023-02-28T09:10:26.766Z,7.76
2023-02-28T09:11:26.669Z,7.83
2023-02-28T09:12:26.747Z,7.87
2023-02-28T09:13:26.618Z,7.83
2023-02-28T09:14:26.649Z,7.97
2023-02-28T09:15:26.819Z,8.13
2023-02-28T09:16:26.747Z,8.13
2023-02-28T09:17:30.824Z,8.12
2023-02-28T09:18:26.722Z,8.18
2023-02-28T09:19:26.555Z,8.36
2023-02-28T09:20:26.546Z,8.37
2023-02-28T09:21:26.552Z,8.56
2023-02-28T09:22:26.580Z,8.51
2023-02-28T09:23:26.522Z,8.66
2023-02-28T09:24:26.777Z,8.69
2023-02-28T09:25:26.512Z,8.82
2023-02-28T09:26:26.515Z,8.91
2023-02-28T09:27:26.485Z,9.06
2023-02-28T09:28:26.495Z,9.22
2023-02-28T09:29:26.450Z,9.26
2023-02-28T09:30:26.759Z,9.18
2023-02-28T09:31:26.444Z,9.19
2023-02-28T09:32:26.500Z,9.14
2023-02-28T09:33:26.406Z,8.97
2023-02-28T09:34:26.418Z,8.87
2023-02-28T09:35:26.532Z,8.88
2023-02-28T09:36:34.551Z,8.78
2023-02-28T09:37:27.440Z,8.71
2023-02-28T09:38:26.352Z,8.76
2023-02-28T09:39:26.342Z,8.69
2023-02-28T09:40:26.404Z,8.70
2023-02-28T09:41:27.340Z,8.76
2023-02-28T09:42:26.651Z,8.81
2023-02-28T09:43:26.360Z,8.85
2023-02-28T09:44:26.287Z,8.88
2023-02-28T09:45:26.391Z,9.00
2023-02-28T09:46:26.992Z,8.92
2023-02-28T09:47:26.260Z,8.94
2023-02-28T09:48:26.367Z,8.88
2023-02-28T09:49:26.228Z,8.78
2023-02-28T09:50:26.217Z,8.64
2023-02-28T09:51:26.220Z,8.64
2023-02-28T09:52:26.201Z,8.55
2023-02-28T09:53:26.198Z,8.48
2023-02-28T09:54:26.277Z,8.41
2023-02-28T09:55:26.456Z,8.33
2023-02-28T09:56:26.192Z,8.24
2023-02-28T09:57:26.138Z,8.16
2023-02-28T09:58:26.130Z,8.08
2023-02-28T09:59:26.139Z,8.08
2023-02-28T10:00:26.145Z,7.97
2023-02-28T10:01:34.002Z,7.98
2023-02-28T10:02:26.850Z,7.83
2023-02-28T10:03:26.080Z,7.90
2023-02-28T10:04:26.092Z,7.90
2023-02-28T10:05:26.054Z,7.76
2023-02-28T10:06:26.043Z,7.77
2023-02-28T10:07:26.060Z,7.82
2023-02-28T10:08:26.023Z,7.88
2023-02-28T10:09:25.992Z,7.85
2023-02-28T10:10:25.983Z,7.94
2023-02-28T10:11:25.972Z,7.93
2023-02-28T10:12:25.984Z,7.93
2023-02-28T10:13:25.973Z,7.87
2023-02-28T10:14:25.937Z,7.94
2023-02-28T10:15:25.949Z,7.95
2023-02-28T10:16:25.936Z,7.94
2023-02-28T10:17:25.952Z,8.03
2023-02-28T10:18:25.923Z,8.06
2023-02-28T10:19:25.910Z,8.16
2023-02-28T10:20:26.834Z,8.26
2023-02-28T10:21:25.863Z,8.37
2023-02-28T10:22:25.852Z,8.49
2023-02-28T10:23:25.842Z,8.56
2023-02-28T10:24:25.883Z,8.64
2023-02-28T10:25:25.815Z,8.70
2023-02-28T10:26:25.909Z,8.78
2023-02-28T10:27:25.802Z,8.85
2023-02-28T10:28:25.776Z,8.87
2023-02-28T10:29:25.853Z,9.08
2023-02-28T10:30:25.807Z,9.22
2023-02-28T10:31:26.477Z,9.25
2023-02-28T10:32:25.882Z,9.41
2023-02-28T10:33:25.772Z,9.50
2023-02-28T10:34:25.717Z,9.50
2023-02-28T10:35:25.697Z,9.54
2023-02-28T10:36:25.822Z,9.74
2023-02-28T10:37:25.716Z,9.73
2023-02-28T10:38:25.700Z,9.84
2023-02-28T10:39:25.659Z,9.95
2023-02-28T10:40:25.667Z,9.91
2023-02-28T10:41:25.660Z,9.97
2023-02-28T10:42:25.841Z,10.01
2023-02-28T10:43:25.676Z,10.05
2023-02-28T10:44:25.619Z,10.25
2023-02-28T10:45:25.610Z,10.26
2023-02-28T10:46:25.622Z,10.41
2023-02-28T10:47:26.347Z,10.53
2023-02-28T10:48:25.575Z,10.54
2023-02-28T10:49:25.637Z,10.68
2023-02-28T10:50:25.538Z,10.68
2023-02-28T10:51:25.593Z,10.75
2023-02-28T10:52:25.538Z,10.84
2023-02-28T10:53:25.558Z,10.87
2023-02-28T10:54:25.503Z,10.84
2023-02-28T10:55:25.476Z,10.94
2023-02-28T10:56:25.644Z,10.93
2023-02-28T10:57:25.532Z,11.10
2023-02-28T10:58:25.456Z,11.08
2023-02-28T10:59:25.428Z,11.05
2023-02-28T11:00:25.488Z,11.19
2023-02-28T11:01:25.489Z,11.27
2023-02-28T11:02:25.424Z,11.37
2023-02-28T11:03:25.503Z,11.40
2023-02-28T11:04:26.410Z,11.47
2023-02-28T11:05:25.364Z,11.40
2023-02-28T11:06:25.483Z,11.36
2023-02-28T11:07:27.642Z,11.35
2023-02-28T11:08:25.341Z,11.37
2023-02-28T11:09:25.441Z,11.40
2023-02-28T11:10:25.334Z,11.36
2023-02-28T11:11:25.295Z,11.37
2023-02-28T11:12:25.449Z,11.44
2023-02-28T11:13:34.673Z,11.30
2023-02-28T11:14:25.262Z,11.35
2023-02-28T11:15:25.271Z,11.36
2023-02-28T11:16:25.437Z,11.25
2023-02-28T11:17:25.874Z,11.11
2023-02-28T11:18:25.246Z,11.12
2023-02-28T11:19:25.262Z,11.17
2023-02-28T11:20:25.204Z,11.11
2023-02-28T11:21:25.197Z,11.05
2023-02-28T11:22:25.167Z,11.08
2023-02-28T11:23:25.165Z,11.08
2023-02-28T11:24:25.689Z,10.99
2023-02-28T11:25:25.149Z,10.97
2023-02-28T11:26:25.122Z,10.79
2023-02-28T11:27:25.161Z,10.84
2023-02-28T11:28:25.112Z,10.75
2023-02-28T11:29:25.094Z,10.69
2023-02-28T11:30:25.130Z,10.64
2023-02-28T11:31:25.113Z,10.63
2023-02-28T11:32:25.239Z,10.51
2023-02-28T11:33:25.060Z,10.56
2023-02-28T11:34:25.032Z,10.57
2023-02-28T11:35:25.061Z,10.64
2023-02-28T11:36:25.399Z,10.64
2023-02-28T11:37:25.010Z,10.69
2023-02-28T11:38:25.038Z,10.79
2023-02-28T11:39:25.018Z,10.78
2023-02-28T11:40:25.001Z,10.75
2023-02-28T11:41:25.016Z,10.76
2023-02-28T11:42:24.989Z,10.71
2023-02-28T11:43:24.942Z,10.74
2023-02-28T11:44:24.937Z,10.72
2023-02-28T11:45:24.905Z,10.76
2023-02-28T11:46:24.955Z,10.75
2023-02-28T11:47:24.893Z,10.74
2023-02-28T11:48:24.949Z,10.78
2023-02-28T11:49:24.867Z,10.81
2023-02-28T11:50:24.863Z,10.75
2023-02-28T11:51:24.875Z,10.72
2023-02-28T11:52:24.840Z,10.74
2023-02-28T11:53:26.819Z,10.72
2023-02-28T11:54:24.866Z,10.67
2023-02-28T11:55:24.799Z,10.59
2023-02-28T11:56:24.791Z,10.51
2023-02-28T11:57:24.775Z,10.49
2023-02-28T11:58:24.875Z,10.44
2023-02-28T11:59:24.903Z,10.33
2023-02-28T12:00:25.238Z,10.49
2023-02-28T12:01:24.740Z,10.59
2023-02-28T12:02:25.459Z,10.48
2023-02-28T12:03:24.761Z,10.42
2023-02-28T12:04:24.697Z,10.44
2023-02-28T12:05:24.720Z,10.44
2023-02-28T12:06:24.716Z,10.54
2023-02-28T12:07:24.721Z,10.44
2023-02-28T12:08:24.668Z,10.49
2023-02-28T12:09:24.648Z,10.46
2023-02-28T12:10:24.661Z,10.48
2023-02-28T12:11:24.673Z,10.53
2023-02-28T12:12:25.499Z,10.42
2023-02-28T12:13:24.596Z,10.40
2023-02-28T12:14:24.625Z,10.37
2023-02-28T12:15:24.587Z,10.31
2023-02-28T12:16:24.583Z,10.35
2023-02-28T12:17:24.569Z,10.34
2023-02-28T12:18:24.596Z,10.31
2023-02-28T12:19:24.533Z,10.31
2023-02-28T12:20:24.550Z,10.23
2023-02-28T12:21:24.514Z,10.19
2023-02-28T12:22:24.526Z,10.25
2023-02-28T12:23:24.653Z,10.19
2023-02-28T12:24:24.505Z,10.26
2023-02-28T12:25:24.496Z,10.20
2023-02-28T12:26:24.456Z,10.25
2023-02-28T12:27:25.988Z,10.30
2023-02-28T12:28:24.456Z,10.30
2023-02-28T12:29:24.440Z,10.31
2023-02-28T12:30:24.482Z,10.35
2023-02-28T12:31:24.456Z,10.44
2023-02-28T12:32:24.520Z,10.44
2023-02-28T12:33:24.382Z,10.46
2023-02-28T12:34:24.384Z,10.41
2023-02-28T12:35:24.389Z,10.46
2023-02-28T12:36:24.511Z,10.54
2023-02-28T12:37:24.335Z,10.56
2023-02-28T12:38:24.336Z,10.59
2023-02-28T12:39:24.338Z,10.48
2023-02-28T12:40:24.978Z,10.54
2023-02-28T12:41:24.287Z,10.46
2023-02-28T12:42:24.760Z,10.46
2023-02-28T12:43:24.268Z,10.46
2023-02-28T12:44:24.260Z,10.40
2023-02-28T12:45:24.250Z,10.53
2023-02-28T12:46:24.433Z,10.51
2023-02-28T12:47:24.219Z,10.51
2023-02-28T12:48:24.288Z,10.59
2023-02-28T12:49:24.205Z,10.56
2023-02-28T12:50:24.190Z,10.61
2023-02-28T12:51:24.175Z,10.71
2023-02-28T12:52:24.182Z,10.75
2023-02-28T12:53:24.155Z,10.69
2023-02-28T12:54:24.237Z,10.74
2023-02-28T12:55:24.154Z,10.82
2023-02-28T12:56:24.152Z,10.90
2023-02-28T12:57:24.106Z,10.94
2023-02-28T12:58:24.086Z,10.92
2023-02-28T12:59:24.073Z,10.90
2023-02-28T13:00:24.836Z,10.92
2023-02-28T13:01:24.096Z,11.02
2023-02-28T13:02:24.105Z,10.97
2023-02-28T13:03:24.031Z,10.97
2023-02-28T13:04:24.019Z,10.87
2023-02-28T13:05:24.013Z,10.90
2023-02-28T13:06:24.111Z,10.81
2023-02-28T13:07:23.990Z,10.81
2023-02-28T13:08:23.975Z,10.79
2023-02-28T13:09:23.963Z,10.78
2023-02-28T13:10:23.987Z,10.59
2023-02-28T13:11:24.025Z,10.59
2023-02-28T13:12:23.966Z,10.56
2023-02-28T13:13:23.993Z,10.49
2023-02-28T13:14:23.911Z,10.57
2023-02-28T13:15:23.930Z,10.34